Decoded Metar for LEHC (HUESCA in SPAIN) (IATA:N/A) | Meteo·Mobile Aviation Weather
aviador You're here:

LEHC Decoded Metar

HUESCA in SPAIN
Report Time2019-02-17 06:00:00
UTC Time2019-02-17 06:24:26
Flight Rules vfr VFR
Wind040° at 03 kt
W.Decomp.*RWY 12: 0.6 kt HW 2.9 kt LCW
W.Rank040° ranks 26
Current wind is below 040° avg. (3.3)
Visibility9999 m
Phenomena:N/A
Clouds:N/A
Expected CloudBase > 2,800 ft AGL from Temp-Dew spread
CeilingNone
Temp-1°C (ISA -12)
Dew Point-8°C (59% RH)
AAT-5.0°C
QNH1026 hPa
Density Alt-144 ft
Elevation1,768 ft
Report Wrong Elevation
Raw Report
METAR LEHC 170600Z AUTO 04003KT 9999 NCD M01/M08 Q1026=

Extra information for LEHC:More info

Metar Taf Metar & Taf Last 4 Metars F.Rules Stats Wind Profile Meteogram Temp Stats Airport Information Weather charts Add Link Nearby VenuesMetar ALERT Operation Metar Decoded Social comments